Hemlock, New York
Current Conditions -  °F | °C
As of 4:54 AM on Saturday 20 Dec 2014 (Local Time) from KROC Reporting Station
Overcast Overcast  
Wind Chill: 22°   Ceiling: 1900
Heat Index: 28°   Visibility: 10mi
Dew Point: 21°   Wind: 6mph
Humidity: 75%   Direction: 240°WSW
Pressure: 30.25"   Gusts: NA
Location:  42.79°N, 77.61°W
Report Text: KROC 200954Z 24005KT 10SM OVC019 M02/M06 A3025 RMK AO2 SLP255 T10221061
Loading
Personal Weather Stations






























Interactive Weather Map New forecast layout! Learn more

10-Day Weather Forecast

Advertisements
Track Severe Weather on mobile